Time;durP1;ratioP1;P1;durP2;ratioP2;P2;SDS_P1;SDS_P2;PMS_P1;PMS_P2;Temp;Humidity;BMP_temperature;BMP_pressure;BME280_temperature;BME280_humidity;BME280_pressure;Samples;Min_cycle;Max_cycle;Signal;HPM_P1;HPM_P2
2021/10/28 00:13:18;;;;;;;20.07;14.53;;;;;;;;;;5058604;28;20207;-64
2021/10/28 00:15:55;;;;;;;20.87;14.30;;;;;;;;;;5058828;28;20230;-64
2021/10/28 00:18:38;;;;;;;24.30;14.27;;;;;;;;;;5058908;28;20233;-64
2021/10/28 00:21:07;;;;;;;23.27;14.53;;;;;;;;;;5058480;28;20634;-64
2021/10/28 00:23:48;;;;;;;23.20;15.57;;;;;;;;;;5058561;28;20217;-64
2021/10/28 00:26:17;;;;;;;22.27;14.07;;;;;;;;;;5058780;28;20241;-63
2021/10/28 00:28:45;;;;;;;24.00;14.67;;;;;;;;;;5058213;28;20229;-64
2021/10/28 00:31:13;;;;;;;21.20;15.20;;;;;;;;;;5058355;28;20260;-64
2021/10/28 00:33:44;;;;;;;22.70;14.10;;;;;;;;;;5058528;28;20241;-64
2021/10/28 00:36:21;;;;;;;21.27;13.57;;;;;;;;;;5057818;28;20243;-64
2021/10/28 00:38:49;;;;;;;19.27;13.73;;;;;;;;;;5057801;28;20233;-64
2021/10/28 00:41:18;;;;;;;22.43;15.23;;;;;;;;;;5058330;28;20262;-64
2021/10/28 00:43:49;;;;;;;26.50;14.67;;;;;;;;;;5057980;28;20274;-65
2021/10/28 00:46:18;;;;;;;21.30;14.17;;;;;;;;;;5058426;28;20203;-64
2021/10/28 00:48:47;;;;;;;19.80;14.40;;;;;;;;;;5057856;28;20273;-64
2021/10/28 00:51:15;;;;;;;19.47;12.80;;;;;;;;;;5046617;28;20221;-64
2021/10/28 00:53:44;;;;;;;19.37;13.30;;;;;;;;;;5058289;28;20289;-64
2021/10/28 00:56:12;;;;;;;22.03;13.23;;;;;;;;;;5057759;28;20231;-64
2021/10/28 00:58:40;;;;;;;22.60;13.07;;;;;;;;;;5057823;28;20227;-64
2021/10/28 01:01:09;;;;;;;18.73;12.03;;;;;;;;;;5057895;28;20202;-64
2021/10/28 01:03:38;;;;;;;17.53;11.93;;;;;;;;;;5057996;28;20213;-64
2021/10/28 01:06:07;;;;;;;16.73;11.47;;;;;;;;;;5057502;28;20207;-64
2021/10/28 01:08:36;;;;;;;16.17;11.93;;;;;;;;;;5057467;28;20744;-64
2021/10/28 01:11:06;;;;;;;18.90;11.97;;;;;;;;;;5055413;28;20711;-64
2021/10/28 01:13:38;;;;;;;17.90;11.70;;;;;;;;;;5057250;28;20574;-64
2021/10/28 01:16:07;;;;;;;15.03;10.93;;;;;;;;;;5057286;28;20215;-64
2021/10/28 01:18:36;;;;;;;20.10;12.07;;;;;;;;;;5057302;28;20223;-64
2021/10/28 01:21:06;;;;;;;19.10;12.03;;;;;;;;;;5057401;28;20285;-64
2021/10/28 01:23:35;;;;;;;17.67;11.07;;;;;;;;;;5057390;28;20206;-64
2021/10/28 01:26:04;;;;;;;18.50;11.80;;;;;;;;;;5057302;28;20285;-64
2021/10/28 01:28:34;;;;;;;16.90;11.13;;;;;;;;;;5057060;28;20242;-64
2021/10/28 01:31:03;;;;;;;20.27;12.30;;;;;;;;;;5057700;28;20226;-63
2021/10/28 01:33:32;;;;;;;18.27;12.37;;;;;;;;;;5054590;28;20234;-64
2021/10/28 01:36:00;;;;;;;18.07;12.37;;;;;;;;;;5057185;28;20230;-64
2021/10/28 01:38:29;;;;;;;18.07;12.40;;;;;;;;;;5057342;28;20317;-63
2021/10/28 01:40:58;;;;;;;19.27;12.13;;;;;;;;;;5057317;28;20212;-63
2021/10/28 01:43:27;;;;;;;18.27;12.50;;;;;;;;;;5057184;28;20293;-64
2021/10/28 01:45:55;;;;;;;18.50;12.23;;;;;;;;;;5057518;28;20203;-64
2021/10/28 01:48:24;;;;;;;18.93;12.20;;;;;;;;;;5057218;28;20227;-64
2021/10/28 01:50:52;;;;;;;20.43;13.03;;;;;;;;;;5046548;28;20207;-63
2021/10/28 01:53:20;;;;;;;20.17;13.50;;;;;;;;;;5044263;28;20289;-63
2021/10/28 01:55:50;;;;;;;21.87;13.57;;;;;;;;;;5057101;28;20294;-63
2021/10/28 01:58:22;;;;;;;22.50;13.30;;;;;;;;;;5056838;28;20230;-63
2021/10/28 02:00:51;;;;;;;19.70;13.63;;;;;;;;;;5057145;28;20294;-63
2021/10/28 02:03:19;;;;;;;18.87;12.90;;;;;;;;;;5057330;28;20247;-64
2021/10/28 02:05:48;;;;;;;22.17;13.43;;;;;;;;;;5056782;28;20229;-63
2021/10/28 02:08:16;;;;;;;22.20;13.33;;;;;;;;;;5057346;28;20222;-63
2021/10/28 02:10:44;;;;;;;21.30;13.77;;;;;;;;;;5057131;28;20732;-63
2021/10/28 02:13:13;;;;;;;24.33;14.17;;;;;;;;;;5057205;28;20294;-63
2021/10/28 02:15:42;;;;;;;22.80;14.50;;;;;;;;;;5057043;28;20226;-63
2021/10/28 02:18:10;;;;;;;18.93;13.60;;;;;;;;;;5056945;28;20227;-63
2021/10/28 02:20:39;;;;;;;19.60;13.30;;;;;;;;;;5058246;28;20291;-63
2021/10/28 02:23:07;;;;;;;22.50;13.80;;;;;;;;;;5060885;28;20666;-63
2021/10/28 02:25:36;;;;;;;21.50;13.83;;;;;;;;;;5060667;28;20569;-63
2021/10/28 02:28:04;;;;;;;22.77;13.73;;;;;;;;;;5060316;28;20864;-63
2021/10/28 02:30:34;;;;;;;19.80;13.90;;;;;;;;;;5060603;28;20642;-63
2021/10/28 02:33:02;;;;;;;19.47;12.87;;;;;;;;;;5060958;28;20210;-63
2021/10/28 02:35:30;;;;;;;24.47;13.43;;;;;;;;;;5060323;28;20235;-63
2021/10/28 02:37:58;;;;;;;20.77;13.57;;;;;;;;;;5060281;28;20718;-63
2021/10/28 02:40:28;;;;;;;18.33;13.03;;;;;;;;;;5060695;28;20206;-63
2021/10/28 02:42:56;;;;;;;19.03;12.37;;;;;;;;;;5060038;28;20230;-63
2021/10/28 02:45:24;;;;;;;19.73;12.43;;;;;;;;;;5060384;28;20593;-63
2021/10/28 02:47:54;;;;;;;19.53;11.83;;;;;;;;;;5060498;28;20290;-62
2021/10/28 02:50:23;;;;;;;18.47;11.77;;;;;;;;;;5053342;28;20670;-64
2021/10/28 02:52:51;;;;;;;20.47;12.40;;;;;;;;;;5073581;28;20233;-64
2021/10/28 02:55:20;;;;;;;17.60;11.83;;;;;;;;;;5080174;28;20737;-63
2021/10/28 02:57:48;;;;;;;18.67;11.40;;;;;;;;;;5079754;28;20234;-63
2021/10/28 03:00:16;;;;;;;20.60;12.70;;;;;;;;;;5080025;28;20226;-63
2021/10/28 03:02:44;;;;;;;23.73;13.47;;;;;;;;;;5080051;28;20298;-64
2021/10/28 03:05:13;;;;;;;26.83;14.53;;;;;;;;;;5079885;28;20210;-64
2021/10/28 03:07:41;;;;;;;27.93;14.13;;;;;;;;;;5079970;28;20314;-64
2021/10/28 03:10:10;;;;;;;31.17;16.43;;;;;;;;;;5080176;28;20245;-63
2021/10/28 03:12:41;;;;;;;26.80;14.50;;;;;;;;;;5079470;28;20291;-62
2021/10/28 03:15:11;;;;;;;28.10;15.57;;;;;;;;;;5079656;28;20631;-62
2021/10/28 03:17:52;;;;;;;25.67;13.87;;;;;;;;;;5079887;28;20261;-63
2021/10/28 03:25:52;;;;;;;33.70;16.57;;;;;;;;;;5079711;28;20216;-64
2021/10/28 03:28:22;;;;;;;31.80;15.27;;;;;;;;;;5075631;28;20222;-64
2021/10/28 03:30:51;;;;;;;33.50;16.13;;;;;;;;;;5059677;28;20299;-64
2021/10/28 03:33:20;;;;;;;30.60;15.03;;;;;;;;;;5059662;28;20213;-64
2021/10/28 03:35:49;;;;;;;26.90;14.67;;;;;;;;;;5059181;28;20252;-64
2021/10/28 03:38:22;;;;;;;32.93;15.13;;;;;;;;;;5059413;28;20305;-64
2021/10/28 03:43:55;;;;;;;31.87;16.47;;;;;;;;;;5058784;28;20660;-63
2021/10/28 04:00:38;;;;;;;26.37;14.03;;;;;;;;;;5059220;28;20238;-64
2021/10/28 04:06:12;;;;;;;29.47;15.83;;;;;;;;;;5058735;28;20356;-64
2021/10/28 04:31:10;;;;;;;25.93;14.90;;;;;;;;;;5058475;28;20210;-63
2021/10/28 04:33:42;;;;;;;31.20;15.30;;;;;;;;;;5058463;28;20207;-64
2021/10/28 04:36:11;;;;;;;24.43;14.93;;;;;;;;;;5058118;28;20290;-64
2021/10/28 04:38:39;;;;;;;31.33;15.30;;;;;;;;;;5058390;28;20313;-63
2021/10/28 04:41:08;;;;;;;25.87;14.50;;;;;;;;;;5058260;28;20207;-64
2021/10/28 04:43:36;;;;;;;29.00;15.03;;;;;;;;;;5044589;28;20294;-64
2021/10/28 04:46:04;;;;;;;24.13;14.63;;;;;;;;;;5058160;28;20729;-63
2021/10/28 04:48:33;;;;;;;27.13;14.53;;;;;;;;;;5058150;28;20234;-64
2021/10/28 04:51:01;;;;;;;28.47;15.20;;;;;;;;;;5046607;28;20207;-65
2021/10/28 04:53:29;;;;;;;31.70;16.10;;;;;;;;;;5057915;28;20294;-64
2021/10/28 04:55:57;;;;;;;31.80;15.80;;;;;;;;;;5057972;28;20210;-65
2021/10/28 04:58:27;;;;;;;29.23;14.53;;;;;;;;;;5057052;28;20310;-64
2021/10/28 05:00:55;;;;;;;40.53;19.37;;;;;;;;;;5055914;28;20207;-64
2021/10/28 05:03:23;;;;;;;36.57;17.13;;;;;;;;;;5056575;28;20202;-64
2021/10/28 05:05:51;;;;;;;31.17;16.27;;;;;;;;;;5056584;28;20203;-65
2021/10/28 05:08:19;;;;;;;32.00;16.60;;;;;;;;;;5059679;28;20585;-65
2021/10/28 05:10:47;;;;;;;32.30;16.47;;;;;;;;;;5057633;28;20205;-64
2021/10/28 05:13:15;;;;;;;33.33;16.90;;;;;;;;;;5057870;28;20271;-64
2021/10/28 05:15:45;;;;;;;31.73;17.23;;;;;;;;;;5059012;28;20276;-64
2021/10/28 05:18:14;;;;;;;33.47;17.10;;;;;;;;;;5056852;28;20309;-64
2021/10/28 05:20:42;;;;;;;30.07;16.23;;;;;;;;;;5059838;28;20208;-64
2021/10/28 05:23:11;;;;;;;31.53;15.40;;;;;;;;;;5054606;28;20289;-65
2021/10/28 05:25:40;;;;;;;31.27;16.57;;;;;;;;;;5057687;28;20286;-65
2021/10/28 05:28:08;;;;;;;34.57;16.13;;;;;;;;;;5058008;28;20297;-66
2021/10/28 05:30:36;;;;;;;31.80;15.70;;;;;;;;;;5058492;28;20277;-65
2021/10/28 05:33:05;;;;;;;34.57;17.17;;;;;;;;;;5059157;28;20654;-65
2021/10/28 05:35:33;;;;;;;35.67;17.37;;;;;;;;;;5056994;28;20234;-65
2021/10/28 05:38:01;;;;;;;35.07;17.20;;;;;;;;;;5056991;28;20306;-65
2021/10/28 05:40:30;;;;;;;33.67;17.47;;;;;;;;;;5057148;28;20207;-63
2021/10/28 05:42:58;;;;;;;28.60;15.77;;;;;;;;;;5057058;28;20286;-65
2021/10/28 05:45:26;;;;;;;28.03;15.13;;;;;;;;;;5056148;28;20256;-65
2021/10/28 05:47:54;;;;;;;29.73;15.40;;;;;;;;;;5056241;28;20282;-65
2021/10/28 05:50:24;;;;;;;32.07;16.67;;;;;;;;;;5055971;28;20238;-65
2021/10/28 05:52:53;;;;;;;32.67;16.87;;;;;;;;;;5054905;28;20213;-64
2021/10/28 05:55:23;;;;;;;37.97;19.13;;;;;;;;;;5058800;28;20249;-65
2021/10/28 05:57:52;;;;;;;33.83;15.93;;;;;;;;;;5059323;28;20305;-66
2021/10/28 06:00:20;;;;;;;27.87;16.17;;;;;;;;;;5059804;28;20290;-67
2021/10/28 06:02:48;;;;;;;33.07;17.43;;;;;;;;;;5061080;28;20282;-66
2021/10/28 06:05:16;;;;;;;27.17;16.07;;;;;;;;;;5059947;28;20206;-67
2021/10/28 06:07:46;;;;;;;26.50;14.87;;;;;;;;;;5060178;28;20194;-64
2021/10/28 06:10:17;;;;;;;26.93;15.30;;;;;;;;;;5061615;28;20227;-64
2021/10/28 06:12:47;;;;;;;26.63;15.53;;;;;;;;;;5060788;28;20282;-63
2021/10/28 06:15:15;;;;;;;27.13;14.17;;;;;;;;;;5061250;28;20209;-63
2021/10/28 06:17:51;;;;;;;25.43;14.30;;;;;;;;;;5060989;28;20225;-63
2021/10/28 06:20:20;;;;;;;26.67;16.03;;;;;;;;;;5060952;28;20289;-65
2021/10/28 06:22:50;;;;;;;32.83;16.60;;;;;;;;;;5059110;28;20241;-65
2021/10/28 06:25:18;;;;;;;32.33;16.10;;;;;;;;;;5061032;28;20286;-66
2021/10/28 06:27:46;;;;;;;27.63;15.90;;;;;;;;;;5058693;28;20233;-66
2021/10/28 06:30:14;;;;;;;28.70;16.97;;;;;;;;;;5048308;28;20285;-65
2021/10/28 06:32:43;;;;;;;24.60;15.37;;;;;;;;;;5047613;28;20290;-65
2021/10/28 06:35:11;;;;;;;29.00;16.30;;;;;;;;;;5045011;28;20777;-63
2021/10/28 06:37:45;;;;;;;28.77;16.43;;;;;;;;;;5048388;28;20282;-63
2021/10/28 06:40:15;;;;;;;31.63;17.03;;;;;;;;;;5049179;28;20214;-64
2021/10/28 06:42:44;;;;;;;31.43;17.77;;;;;;;;;;5050600;28;20263;-65
2021/10/28 06:45:12;;;;;;;31.13;16.03;;;;;;;;;;5059844;28;20213;-65
2021/10/28 06:47:40;;;;;;;31.73;17.17;;;;;;;;;;5060277;28;20302;-65
2021/10/28 06:50:11;;;;;;;29.87;15.93;;;;;;;;;;5054910;28;20577;-65
2021/10/28 06:52:49;;;;;;;38.37;16.57;;;;;;;;;;5054670;28;20290;-64
2021/10/28 06:55:27;;;;;;;34.73;17.13;;;;;;;;;;5060354;28;20213;-63
2021/10/28 07:03:27;;;;;;;34.43;17.80;;;;;;;;;;5060268;28;20221;-63
2021/10/28 07:05:59;;;;;;;39.77;17.87;;;;;;;;;;5059698;28;20290;-63
2021/10/28 07:08:27;;;;;;;36.13;18.67;;;;;;;;;;5059871;28;20223;-65
2021/10/28 07:10:58;;;;;;;33.13;17.60;;;;;;;;;;5060135;28;20285;-63
2021/10/28 07:13:29;;;;;;;41.27;18.97;;;;;;;;;;5059268;28;20272;-62
2021/10/28 07:16:00;;;;;;;40.13;18.77;;;;;;;;;;5045765;28;20278;-64
2021/10/28 07:18:39;;;;;;;35.33;17.67;;;;;;;;;;5046735;28;20678;-64
2021/10/28 07:26:54;;;;;;;31.83;16.80;;;;;;;;;;5079527;28;20250;-64
2021/10/28 07:32:37;;;;;;;33.63;16.33;;;;;;;;;;5059555;28;20368;-65
2021/10/28 08:06:05;;;;;;;41.67;19.93;;;;;;;;;;5037874;28;20286;-64
2021/10/28 08:19:47;;;;;;;35.30;19.57;;;;;;;;;;5040349;28;20291;-65
2021/10/28 08:22:19;;;;;;;35.23;18.93;;;;;;;;;;5047154;28;20244;-65
2021/10/28 08:30:25;;;;;;;40.50;19.83;;;;;;;;;;5047280;28;20821;-65
2021/10/28 08:32:54;;;;;;;37.73;19.03;;;;;;;;;;5046825;28;20714;-65
2021/10/28 08:35:39;;;;;;;40.30;18.93;;;;;;;;;;5043149;28;20338;-65
2021/10/28 08:38:07;;;;;;;38.77;18.30;;;;;;;;;;5047780;28;20709;-65
2021/10/28 08:40:35;;;;;;;39.10;19.97;;;;;;;;;;5044940;28;20286;-66
2021/10/28 08:43:04;;;;;;;38.77;19.90;;;;;;;;;;5047326;28;20612;-65
2021/10/28 08:45:35;;;;;;;35.03;18.70;;;;;;;;;;5045019;28;20199;-66
2021/10/28 08:48:08;;;;;;;36.37;20.27;;;;;;;;;;5045595;28;20223;-65
2021/10/28 08:50:39;;;;;;;35.13;19.00;;;;;;;;;;5046481;28;20206;-65
2021/10/28 08:53:31;;;;;;;37.73;18.70;;;;;;;;;;5045658;28;20195;-66
2021/10/28 08:56:01;;;;;;;37.13;19.43;;;;;;;;;;5041158;28;20203;-66
2021/10/28 08:58:44;;;;;;;43.10;20.13;;;;;;;;;;5047317;28;20223;-65
2021/10/28 09:26:23;;;;;;;39.20;19.83;;;;;;;;;;5046067;28;20211;-65
2021/10/28 09:29:00;;;;;;;42.80;20.30;;;;;;;;;;5045854;28;20576;-65
2021/10/28 09:31:29;;;;;;;37.93;18.93;;;;;;;;;;5045720;28;20293;-65
2021/10/28 09:34:06;;;;;;;36.90;20.37;;;;;;;;;;5057272;28;21850;-65
2021/10/28 09:45:17;;;;;;;42.30;19.70;;;;;;;;;;5046155;28;20206;-64
2021/10/28 09:47:51;;;;;;;37.10;20.53;;;;;;;;;;5076920;28;20288;-64
2021/10/28 09:50:25;;;;;;;35.47;17.23;;;;;;;;;;5067800;28;20760;-65
2021/10/28 09:53:09;;;;;;;27.10;16.53;;;;;;;;;;5057016;28;20234;-64
2021/10/28 09:58:32;;;;;;;28.53;16.27;;;;;;;;;;5044386;28;20645;-64
2021/10/28 10:01:01;;;;;;;30.17;16.43;;;;;;;;;;5044609;28;20777;-64
2021/10/28 10:03:31;;;;;;;26.87;15.50;;;;;;;;;;5050504;28;20659;-64
2021/10/28 10:06:02;;;;;;;26.93;15.20;;;;;;;;;;5056907;28;20563;-64
2021/10/28 10:08:31;;;;;;;27.90;15.53;;;;;;;;;;5048939;28;20298;-63
2021/10/28 10:10:59;;;;;;;20.80;14.13;;;;;;;;;;5044887;28;20601;-64
2021/10/28 10:13:28;;;;;;;24.00;14.57;;;;;;;;;;5046544;28;20199;-63
2021/10/28 10:15:57;;;;;;;23.57;13.97;;;;;;;;;;5052181;28;20297;-63
2021/10/28 10:18:26;;;;;;;26.60;15.17;;;;;;;;;;5056750;28;20234;-63
2021/10/28 10:20:58;;;;;;;27.93;14.30;;;;;;;;;;5056414;28;20321;-62
2021/10/28 10:23:39;;;;;;;26.50;14.70;;;;;;;;;;5056613;28;20670;-63
2021/10/28 11:21:50;;;;;;;8.27;5.10;;;;;;;;;;5059363;28;20227;-62
2021/10/28 11:27:26;;;;;;;8.67;5.97;;;;;;;;;;5059174;28;20680;-62
2021/10/28 12:24:35;;;;;;;8.67;5.97;;;;;;;;;;5019204;28;20212;-62
2021/10/28 12:44:07;;;;;;;7.90;5.23;;;;;;;;;;5047394;28;20199;-65
2021/10/28 12:46:57;;;;;;;9.97;5.97;;;;;;;;;;5044784;28;20616;-63
2021/10/28 12:49:53;;;;;;;7.93;5.97;;;;;;;;;;5044648;28;20225;-63
2021/10/28 12:55:49;;;;;;;15.97;7.50;;;;;;;;;;5024049;28;20287;-63
2021/10/28 13:04:08;;;;;;;9.20;5.73;;;;;;;;;;5057458;28;20206;-61
2021/10/28 13:48:45;;;;;;;6.40;3.53;;;;;;;;;;5052239;28;20276;-62
2021/10/28 13:54:20;;;;;;;5.37;3.70;;;;;;;;;;5047964;28;20658;-62
2021/10/28 13:56:59;;;;;;;3.87;2.93;;;;;;;;;;5056954;28;20283;-64
2021/10/28 13:59:49;;;;;;;5.17;2.93;;;;;;;;;;5056808;28;20229;-63
2021/10/28 14:21:44;;;;;;;3.50;2.70;;;;;;;;;;5060657;28;20306;-63
2021/10/28 14:27:19;;;;;;;3.33;2.73;;;;;;;;;;5037809;28;20270;-63
2021/10/28 14:33:04;;;;;;;4.23;2.90;;;;;;;;;;5060446;28;20262;-64
2021/10/28 14:38:37;;;;;;;5.70;2.73;;;;;;;;;;5060208;28;20238;-64
2021/10/28 15:28:18;;;;;;;2.90;2.00;;;;;;;;;;5112013;28;20228;-65
2021/10/28 15:36:33;;;;;;;4.20;2.13;;;;;;;;;;5111258;28;20256;-65
2021/10/28 15:39:09;;;;;;;6.87;2.50;;;;;;;;;;5112906;28;20260;-66
2021/10/28 15:47:38;;;;;;;6.23;2.67;;;;;;;;;;5113632;28;20211;-66
2021/10/28 15:53:22;;;;;;;7.30;3.03;;;;;;;;;;5114275;28;20205;-66
2021/10/28 16:23:38;;;;;;;3.47;2.40;;;;;;;;;;5100197;28;20281;-66
2021/10/28 16:26:07;;;;;;;3.63;2.37;;;;;;;;;;5099632;28;20221;-66
2021/10/28 16:28:37;;;;;;;4.77;2.47;;;;;;;;;;5099087;28;20245;-66
2021/10/28 16:31:05;;;;;;;3.43;2.30;;;;;;;;;;5099819;28;20201;-65
2021/10/28 16:33:33;;;;;;;5.83;3.13;;;;;;;;;;5099672;28;20284;-66
2021/10/28 16:36:01;;;;;;;4.47;2.50;;;;;;;;;;5098611;28;20285;-66
2021/10/28 16:38:29;;;;;;;5.57;2.70;;;;;;;;;;5099379;28;20233;-65
2021/10/28 16:40:57;;;;;;;3.47;2.17;;;;;;;;;;5099893;28;20221;-66
2021/10/28 16:43:25;;;;;;;4.53;2.70;;;;;;;;;;5099404;28;20561;-66
2021/10/28 16:45:55;;;;;;;8.23;2.80;;;;;;;;;;5099450;28;20228;-66
2021/10/28 16:48:23;;;;;;;3.60;2.73;;;;;;;;;;5099410;28;20225;-66
2021/10/28 16:50:55;;;;;;;6.70;2.80;;;;;;;;;;5099369;28;20293;-66
2021/10/28 16:53:23;;;;;;;4.90;2.37;;;;;;;;;;5099941;28;20288;-66
2021/10/28 16:55:58;;;;;;;5.17;2.73;;;;;;;;;;5099480;28;20636;-66
2021/10/28 16:58:26;;;;;;;5.13;2.40;;;;;;;;;;5099369;28;20259;-66
2021/10/28 17:00:56;;;;;;;4.90;3.33;;;;;;;;;;5099604;28;20690;-66
2021/10/28 17:03:24;;;;;;;5.87;3.30;;;;;;;;;;5099614;28;20241;-66
2021/10/28 17:05:52;;;;;;;6.70;3.50;;;;;;;;;;5099480;28;20269;-66
2021/10/28 17:08:20;;;;;;;5.83;3.73;;;;;;;;;;5099234;28;20237;-65
2021/10/28 17:10:48;;;;;;;5.13;3.83;;;;;;;;;;5099472;28;20305;-64
2021/10/28 17:13:16;;;;;;;6.67;3.73;;;;;;;;;;5099041;28;20285;-64
2021/10/28 17:15:44;;;;;;;7.23;3.90;;;;;;;;;;5099339;28;20212;-65
2021/10/28 17:18:14;;;;;;;6.37;3.00;;;;;;;;;;5099353;28;20225;-63
2021/10/28 17:20:42;;;;;;;5.20;3.20;;;;;;;;;;5099256;28;20213;-64
2021/10/28 17:23:13;;;;;;;5.73;3.07;;;;;;;;;;5099389;28;20209;-65
2021/10/28 17:25:44;;;;;;;6.60;2.63;;;;;;;;;;5099151;28;20233;-65
2021/10/28 17:28:12;;;;;;;4.50;2.80;;;;;;;;;;5097403;28;20225;-65
2021/10/28 17:30:40;;;;;;;3.77;2.80;;;;;;;;;;5098731;28;20296;-66
2021/10/28 17:33:08;;;;;;;4.97;3.60;;;;;;;;;;5098802;28;20209;-64
2021/10/28 17:35:38;;;;;;;4.83;2.87;;;;;;;;;;5098607;28;20664;-63
2021/10/28 17:38:06;;;;;;;5.47;3.30;;;;;;;;;;5098909;28;20300;-63
2021/10/28 17:40:34;;;;;;;9.57;3.33;;;;;;;;;;5098691;28;20201;-65
2021/10/28 17:43:02;;;;;;;8.00;3.40;;;;;;;;;;5098427;28;20197;-65
2021/10/28 17:45:31;;;;;;;7.33;3.50;;;;;;;;;;5098648;28;20231;-65
2021/10/28 17:47:59;;;;;;;4.23;2.87;;;;;;;;;;5098656;28;20306;-65
2021/10/28 17:50:27;;;;;;;7.20;3.30;;;;;;;;;;5098332;28;20237;-65
2021/10/28 17:52:56;;;;;;;3.87;3.00;;;;;;;;;;5098871;28;20273;-65
2021/10/28 17:55:25;;;;;;;6.80;2.80;;;;;;;;;;5098688;28;20200;-65
2021/10/28 17:57:53;;;;;;;4.37;2.93;;;;;;;;;;5098383;28;20205;-65
2021/10/28 18:00:21;;;;;;;6.43;3.00;;;;;;;;;;5098228;28;20751;-65
2021/10/28 18:02:51;;;;;;;9.93;3.10;;;;;;;;;;5098652;28;20219;-65
2021/10/28 18:05:40;;;;;;;7.90;3.77;;;;;;;;;;5097727;28;20663;-65
2021/10/28 18:08:09;;;;;;;4.33;2.80;;;;;;;;;;5097932;28;20257;-67
2021/10/28 18:10:37;;;;;;;5.30;3.43;;;;;;;;;;5097590;28;20229;-67
2021/10/28 18:13:05;;;;;;;6.83;2.90;;;;;;;;;;5097454;28;20633;-65
2021/10/28 18:15:33;;;;;;;4.80;3.60;;;;;;;;;;5097716;28;20571;-65
2021/10/28 18:18:05;;;;;;;5.33;3.37;;;;;;;;;;5098068;28;20239;-64
2021/10/28 18:20:42;;;;;;;3.33;2.97;;;;;;;;;;5095985;28;20205;-65
2021/10/28 18:23:30;;;;;;;3.83;3.43;;;;;;;;;;5096916;28;20225;-64
2021/10/28 18:25:58;;;;;;;5.77;3.00;;;;;;;;;;5097535;28;20308;-64
2021/10/28 18:28:27;;;;;;;5.37;3.23;;;;;;;;;;5097535;28;20228;-66
2021/10/28 18:30:55;;;;;;;5.00;3.03;;;;;;;;;;5098047;28;20289;-64
2021/10/28 18:33:23;;;;;;;4.30;2.97;;;;;;;;;;5097911;28;20235;-66
2021/10/28 18:35:52;;;;;;;3.90;2.90;;;;;;;;;;5097914;28;20205;-65
2021/10/28 18:38:21;;;;;;;8.17;4.40;;;;;;;;;;5097564;28;20254;-65
2021/10/28 18:40:52;;;;;;;6.80;3.67;;;;;;;;;;5097891;28;20232;-65
2021/10/28 18:43:21;;;;;;;4.63;3.00;;;;;;;;;;5095127;28;20255;-65
2021/10/28 18:45:49;;;;;;;6.47;3.27;;;;;;;;;;5097743;28;20274;-65
2021/10/28 18:48:17;;;;;;;4.43;3.00;;;;;;;;;;5097728;28;20224;-65
2021/10/28 18:50:46;;;;;;;3.97;3.00;;;;;;;;;;5097676;28;20265;-65
2021/10/28 18:53:14;;;;;;;4.73;3.73;;;;;;;;;;5097757;28;20236;-65
2021/10/28 18:55:42;;;;;;;5.33;3.27;;;;;;;;;;5097460;28;20237;-65
2021/10/28 18:58:12;;;;;;;5.43;3.47;;;;;;;;;;5096997;28;20711;-64
2021/10/28 19:00:40;;;;;;;7.07;3.70;;;;;;;;;;5094689;28;20205;-65
2021/10/28 19:03:09;;;;;;;6.53;3.30;;;;;;;;;;5097483;28;20668;-65
2021/10/28 19:05:37;;;;;;;4.83;3.10;;;;;;;;;;5097051;28;20260;-65
2021/10/28 19:08:05;;;;;;;6.23;3.20;;;;;;;;;;5097462;28;20222;-65
2021/10/28 19:10:33;;;;;;;6.07;3.47;;;;;;;;;;5097246;28;20263;-64
2021/10/28 19:13:01;;;;;;;5.30;4.23;;;;;;;;;;5094867;28;20223;-64
2021/10/28 19:15:31;;;;;;;6.60;3.50;;;;;;;;;;5097463;28;20269;-64
2021/10/28 19:17:59;;;;;;;4.67;3.73;;;;;;;;;;5094819;28;20226;-65
2021/10/28 19:20:28;;;;;;;4.07;3.10;;;;;;;;;;5097333;28;20281;-65
2021/10/28 19:22:56;;;;;;;4.87;3.57;;;;;;;;;;5097118;28;20197;-67
2021/10/28 19:25:25;;;;;;;7.67;3.57;;;;;;;;;;5097384;28;20219;-64
2021/10/28 19:27:54;;;;;;;4.40;3.17;;;;;;;;;;5096959;28;20221;-65
2021/10/28 19:30:30;;;;;;;6.07;3.43;;;;;;;;;;5094895;28;20205;-64
2021/10/28 19:33:02;;;;;;;7.80;3.20;;;;;;;;;;5097423;28;20233;-64
2021/10/28 19:35:32;;;;;;;5.80;3.07;;;;;;;;;;5096821;28;20645;-65
2021/10/28 19:38:08;;;;;;;7.20;3.57;;;;;;;;;;5094451;28;21314;-64
2021/10/28 19:40:47;;;;;;;4.87;3.03;;;;;;;;;;5096549;28;20247;-65
2021/10/28 19:46:13;;;;;;;4.27;3.17;;;;;;;;;;5034521;28;20251;-65
2021/10/28 19:48:43;;;;;;;5.03;3.47;;;;;;;;;;5081056;28;20217;-65
2021/10/28 19:51:11;;;;;;;5.67;3.07;;;;;;;;;;5098348;28;20236;-65
2021/10/28 19:53:40;;;;;;;6.17;3.30;;;;;;;;;;5098412;28;20202;-65
2021/10/28 19:56:13;;;;;;;7.27;3.80;;;;;;;;;;5100757;28;20609;-65
2021/10/28 19:58:43;;;;;;;5.60;3.70;;;;;;;;;;5098855;28;20297;-65
2021/10/28 20:01:21;;;;;;;6.00;3.43;;;;;;;;;;5100889;28;20284;-65
2021/10/28 20:06:54;;;;;;;5.53;3.30;;;;;;;;;;5099359;28;20220;-65
2021/10/28 20:15:03;;;;;;;7.17;3.70;;;;;;;;;;5099755;28;20197;-65
2021/10/28 20:20:20;;;;;;;7.40;3.63;;;;;;;;;;5099946;28;20373;-65
2021/10/28 20:22:49;;;;;;;4.20;3.53;;;;;;;;;;5100062;28;20280;-67
2021/10/28 20:25:19;;;;;;;4.10;3.10;;;;;;;;;;5100039;28;20281;-65
2021/10/28 20:27:49;;;;;;;9.03;3.77;;;;;;;;;;5100395;28;20309;-64
2021/10/28 20:30:18;;;;;;;6.17;3.50;;;;;;;;;;5100140;28;20194;-65
2021/10/28 20:32:47;;;;;;;5.83;3.77;;;;;;;;;;5100017;28;20204;-64
2021/10/28 20:35:27;;;;;;;6.37;4.03;;;;;;;;;;5098540;28;20289;-65
2021/10/28 20:37:57;;;;;;;10.00;5.07;;;;;;;;;;5096158;28;20319;-65
2021/10/28 20:40:30;;;;;;;7.63;3.53;;;;;;;;;;5098462;28;20534;-66
2021/10/28 20:42:58;;;;;;;6.10;4.57;;;;;;;;;;5095977;28;20197;-67
2021/10/28 20:45:26;;;;;;;7.27;3.80;;;;;;;;;;5098044;28;20301;-67
2021/10/28 20:47:54;;;;;;;7.03;3.97;;;;;;;;;;5096918;28;20221;-66
2021/10/28 20:50:24;;;;;;;7.20;3.80;;;;;;;;;;5097951;28;20215;-66
2021/10/28 20:52:52;;;;;;;7.13;4.20;;;;;;;;;;5097957;28;20201;-65
2021/10/28 20:55:22;;;;;;;5.23;4.40;;;;;;;;;;5097712;28;20209;-65
2021/10/28 20:57:51;;;;;;;8.57;4.30;;;;;;;;;;5095416;28;20190;-65
2021/10/28 21:00:21;;;;;;;8.40;4.30;;;;;;;;;;5098166;28;20197;-65
2021/10/28 21:02:57;;;;;;;7.87;4.80;;;;;;;;;;5096249;28;20205;-64
2021/10/28 21:05:25;;;;;;;12.27;4.73;;;;;;;;;;5097833;28;20264;-65
2021/10/28 21:07:53;;;;;;;8.70;4.83;;;;;;;;;;5097255;28;20217;-66
2021/10/28 21:10:25;;;;;;;9.30;4.87;;;;;;;;;;5097180;28;20267;-66
2021/10/28 21:12:53;;;;;;;10.23;4.77;;;;;;;;;;5098051;28;20261;-66
2021/10/28 21:15:21;;;;;;;9.77;5.27;;;;;;;;;;5098145;28;20284;-66
2021/10/28 21:17:49;;;;;;;8.80;4.30;;;;;;;;;;5098368;28;20278;-66
2021/10/28 21:20:17;;;;;;;9.77;4.97;;;;;;;;;;5097933;28;20629;-66
2021/10/28 21:22:45;;;;;;;9.13;4.53;;;;;;;;;;5095199;28;20280;-66
2021/10/28 21:25:13;;;;;;;11.30;5.43;;;;;;;;;;5098013;28;20208;-66
2021/10/28 21:27:43;;;;;;;10.17;4.40;;;;;;;;;;5097603;28;20301;-66
2021/10/28 21:30:27;;;;;;;5.63;3.67;;;;;;;;;;5097739;28;20197;-66
2021/10/28 21:32:56;;;;;;;7.17;4.60;;;;;;;;;;5097601;28;20212;-66
2021/10/28 21:35:24;;;;;;;6.30;4.63;;;;;;;;;;5096508;28;20193;-66
2021/10/28 21:37:53;;;;;;;9.03;4.20;;;;;;;;;;5097835;28;20217;-66
2021/10/28 21:40:21;;;;;;;6.57;4.40;;;;;;;;;;5097782;28;20261;-66
2021/10/28 21:42:50;;;;;;;7.53;4.30;;;;;;;;;;5097626;28;20276;-66
2021/10/28 21:45:20;;;;;;;10.53;4.67;;;;;;;;;;5099050;28;20197;-66
2021/10/28 21:47:50;;;;;;;7.87;4.20;;;;;;;;;;5098533;28;20696;-66
2021/10/28 21:50:19;;;;;;;7.67;4.40;;;;;;;;;;5098559;28;20596;-66
2021/10/28 21:52:51;;;;;;;9.73;4.53;;;;;;;;;;5098733;28;20553;-66
2021/10/28 21:55:34;;;;;;;10.30;6.13;;;;;;;;;;5098520;28;20300;-66
2021/10/28 21:58:11;;;;;;;11.53;5.07;;;;;;;;;;5098489;28;20221;-66
2021/10/28 22:00:46;;;;;;;5.73;4.63;;;;;;;;;;5098681;28;20861;-66
2021/10/28 22:25:29;;;;;;;5.63;4.23;;;;;;;;;;5080546;28;20288;-66
2021/10/28 22:27:57;;;;;;;7.67;3.70;;;;;;;;;;5097867;28;20229;-66
2021/10/28 22:30:27;;;;;;;5.40;3.90;;;;;;;;;;5098197;28;20290;-66
2021/10/28 22:32:58;;;;;;;7.60;4.50;;;;;;;;;;5098465;28;20206;-66
2021/10/28 22:35:32;;;;;;;6.23;4.27;;;;;;;;;;5098061;28;20231;-66
2021/10/28 22:38:01;;;;;;;7.17;4.50;;;;;;;;;;5098217;28;20227;-66
2021/10/28 22:40:34;;;;;;;10.70;4.53;;;;;;;;;;5096461;28;20212;-66
2021/10/28 22:43:03;;;;;;;10.50;4.40;;;;;;;;;;5097991;28;20234;-66
2021/10/28 22:45:32;;;;;;;6.80;4.30;;;;;;;;;;5097919;28;20629;-66
2021/10/28 22:48:00;;;;;;;5.03;3.57;;;;;;;;;;5098064;28;20230;-66
2021/10/28 22:50:29;;;;;;;6.73;3.90;;;;;;;;;;5097669;28;20747;-66
2021/10/28 22:52:59;;;;;;;4.77;3.77;;;;;;;;;;5097888;28;20215;-66
2021/10/28 22:55:30;;;;;;;7.73;3.47;;;;;;;;;;5098038;28;20213;-66
2021/10/28 22:58:04;;;;;;;6.67;3.73;;;;;;;;;;5097489;28;20226;-66
2021/10/28 23:00:43;;;;;;;6.07;3.97;;;;;;;;;;5097796;28;20304;-66
2021/10/28 23:03:17;;;;;;;4.70;4.20;;;;;;;;;;5097746;28;20572;-66
2021/10/28 23:06:01;;;;;;;5.43;3.80;;;;;;;;;;5097571;28;20237;-66